createdAt,value
2018-09-24T00:02:21.101Z,0.20
2018-09-24T00:07:24.362Z,0.10
2018-09-24T00:12:27.608Z,0.20
2018-09-24T00:17:30.895Z,0.30
2018-09-24T00:22:33.903Z,0.30
2018-09-24T00:27:37.145Z,0.20
2018-09-24T00:32:40.407Z,0.30
2018-09-24T00:37:43.740Z,0.17
2018-09-24T00:42:47.009Z,0.17
2018-09-24T00:47:50.252Z,0.10
2018-09-24T00:52:53.569Z,0.30
2018-09-24T00:57:56.828Z,0.30
2018-09-24T01:03:00.097Z,0.30
2018-09-24T01:08:03.363Z,0.20
2018-09-24T01:13:06.635Z,0.20
2018-09-24T01:18:09.916Z,0.20
2018-09-24T01:23:13.200Z,0.10
2018-09-24T01:28:16.455Z,0.40
2018-09-24T01:33:19.716Z,0.20
2018-09-24T01:38:22.988Z,0.20
2018-09-24T01:43:26.265Z,0.30
2018-09-24T01:48:29.515Z,0.20
2018-09-24T01:53:32.520Z,0.40
2018-09-24T01:58:38.556Z,0.40
2018-09-24T02:03:41.860Z,0.10
2018-09-24T02:08:45.245Z,0.43
2018-09-24T02:13:52.498Z,0.43
2018-09-24T02:18:59.180Z,0.40
2018-09-24T02:24:05.566Z,0.20
2018-09-24T02:29:08.820Z,0.47
2018-09-24T02:34:12.805Z,0.40
2018-09-24T02:39:16.078Z,0.63
2018-09-24T02:44:19.352Z,0.50
2018-09-24T02:49:22.681Z,0.50
2018-09-24T02:54:26.002Z,0.40
2018-09-24T02:59:29.273Z,0.50
2018-09-24T03:04:32.538Z,0.50
2018-09-24T03:09:35.825Z,0.50
2018-09-24T03:14:39.092Z,0.60
2018-09-24T03:19:42.363Z,0.40
2018-09-24T03:24:45.662Z,0.30
2018-09-24T03:29:48.928Z,0.60
2018-09-24T03:34:52.172Z,0.60
2018-09-24T03:39:55.439Z,0.60
2018-09-24T03:44:58.739Z,0.60
2018-09-24T03:50:02.029Z,0.80
2018-09-24T03:55:05.313Z,0.57
2018-09-24T04:00:08.938Z,0.70
2018-09-24T04:05:17.553Z,0.70
2018-09-24T04:10:26.011Z,0.50
2018-09-24T04:15:34.536Z,0.80
2018-09-24T04:20:43.210Z,0.60
2018-09-24T04:25:52.046Z,0.53
2018-09-24T04:31:00.746Z,0.90
2018-09-24T04:36:09.252Z,0.83
2018-09-24T04:41:18.019Z,0.63
2018-09-24T04:46:26.608Z,1.27
2018-09-24T04:51:35.335Z,1.00
2018-09-24T04:56:45.107Z,0.80
2018-09-24T05:01:55.373Z,0.80
2018-09-24T05:07:05.363Z,0.80
2018-09-24T05:12:14.071Z,1.23
2018-09-24T05:17:22.793Z,1.00
2018-09-24T05:22:31.585Z,1.70
2018-09-24T05:27:40.264Z,1.60
2018-09-24T05:32:48.811Z,1.37
2018-09-24T05:37:57.543Z,1.27
2018-09-24T05:43:06.394Z,1.60
2018-09-24T05:48:14.952Z,1.03
2018-09-24T05:53:23.626Z,1.60
2018-09-24T05:58:32.192Z,0.70
2018-09-24T06:03:40.933Z,0.73
2018-09-24T06:08:49.437Z,1.30
2018-09-24T06:13:58.035Z,1.07
2018-09-24T06:19:06.530Z,0.83
2018-09-24T06:24:15.110Z,1.53
2018-09-24T06:29:23.720Z,0.90
2018-09-24T06:34:32.464Z,1.10
2018-09-24T06:39:41.046Z,0.83
2018-09-24T06:44:49.567Z,1.33
2018-09-24T06:49:58.352Z,1.10
2018-09-24T06:55:07.093Z,1.00
2018-09-24T07:00:15.816Z,1.20
2018-09-24T07:05:24.612Z,1.17
2018-09-24T07:10:33.239Z,0.87
2018-09-24T07:15:42.033Z,0.93
2018-09-24T07:20:50.753Z,1.43
2018-09-24T07:25:59.358Z,1.10
2018-09-24T07:31:08.102Z,1.27
2018-09-24T07:36:16.767Z,0.73
2018-09-24T07:41:25.272Z,1.13
2018-09-24T07:46:33.927Z,0.93
2018-09-24T07:51:42.514Z,1.23
2018-09-24T07:56:51.177Z,1.53
2018-09-24T08:01:59.956Z,1.30
2018-09-24T08:07:08.650Z,0.47
2018-09-24T08:12:17.250Z,1.20
2018-09-24T08:17:25.865Z,1.20
2018-09-24T08:22:34.455Z,0.80
2018-09-24T08:27:43.078Z,0.87
2018-09-24T08:32:51.703Z,0.67
2018-09-24T08:38:00.518Z,1.00
2018-09-24T08:43:09.086Z,0.80
2018-09-24T08:48:17.874Z,0.70
2018-09-24T08:53:26.697Z,1.00
2018-09-24T08:58:35.399Z,1.00
2018-09-24T09:03:44.138Z,1.00
2018-09-24T09:08:52.851Z,2.77
2018-09-24T09:14:01.447Z,0.80
2018-09-24T09:19:10.043Z,1.10
2018-09-24T09:24:18.664Z,0.80
2018-09-24T09:29:27.452Z,0.73
2018-09-24T09:34:36.123Z,1.20
2018-09-24T09:39:44.854Z,1.20
2018-09-24T09:44:53.544Z,1.07
2018-09-24T09:50:02.950Z,1.30
2018-09-24T09:55:11.626Z,0.80
2018-09-24T10:00:20.324Z,1.00
2018-09-24T10:05:29.005Z,1.00
2018-09-24T10:10:44.318Z,0.90
2018-09-24T10:15:52.859Z,1.23
2018-09-24T10:21:01.515Z,0.80
2018-09-24T10:26:10.134Z,0.90
2018-09-24T10:31:18.853Z,0.90
2018-09-24T10:36:27.448Z,0.60
2018-09-24T10:41:35.959Z,0.80
2018-09-24T10:46:44.642Z,1.10
2018-09-24T10:51:53.412Z,0.50
2018-09-24T10:57:02.043Z,0.80
2018-09-24T11:02:10.678Z,1.33
2018-09-24T11:07:19.413Z,1.03
2018-09-24T11:12:28.033Z,0.80
2018-09-24T11:17:37.001Z,0.83
2018-09-24T11:22:45.488Z,0.90
2018-09-24T11:27:54.057Z,1.20
2018-09-24T11:33:02.836Z,1.10
2018-09-24T11:38:11.629Z,1.30
2018-09-24T11:43:20.383Z,1.10
2018-09-24T11:48:28.948Z,0.93
2018-09-24T11:53:37.621Z,0.90
2018-09-24T11:58:46.261Z,0.87
2018-09-24T12:03:54.885Z,1.00
2018-09-24T12:09:03.586Z,0.80
2018-09-24T12:14:12.335Z,1.07
2018-09-24T12:19:20.952Z,0.90
2018-09-24T12:24:29.792Z,1.10
2018-09-24T12:29:38.573Z,0.70
2018-09-24T12:34:47.308Z,1.07
2018-09-24T12:39:56.020Z,1.50
2018-09-24T12:45:04.785Z,0.90
2018-09-24T12:50:13.386Z,0.70
2018-09-24T12:55:22.047Z,1.20
2018-09-24T13:00:30.626Z,1.10
2018-09-24T13:05:39.204Z,0.90
2018-09-24T13:10:47.855Z,0.83
2018-09-24T13:15:56.563Z,0.90
2018-09-24T13:21:05.247Z,1.60
2018-09-24T13:26:13.895Z,1.00
2018-09-24T13:31:22.651Z,0.93
2018-09-24T13:36:31.276Z,1.60
2018-09-24T13:41:39.840Z,1.20
2018-09-24T13:46:48.669Z,1.10
2018-09-24T13:51:57.356Z,1.50
2018-09-24T13:57:06.065Z,1.37
2018-09-24T14:02:14.767Z,0.80
2018-09-24T14:07:23.518Z,1.00
2018-09-24T14:12:32.142Z,1.00
2018-09-24T14:17:41.850Z,0.90
2018-09-24T14:22:50.457Z,1.30
2018-09-24T14:27:59.055Z,1.03
2018-09-24T14:33:07.765Z,1.00
2018-09-24T14:38:16.446Z,0.90
2018-09-24T14:43:25.020Z,1.00
2018-09-24T14:48:33.636Z,1.90
2018-09-24T14:53:42.231Z,1.07
2018-09-24T14:58:50.961Z,0.97
2018-09-24T15:03:59.596Z,1.13
2018-09-24T15:09:08.345Z,1.00
2018-09-24T15:14:16.831Z,0.87
2018-09-24T15:19:25.539Z,1.00
2018-09-24T15:24:34.347Z,1.80
2018-09-24T15:29:43.051Z,1.00
2018-09-24T15:34:51.658Z,1.07
2018-09-24T15:40:00.426Z,0.93
2018-09-24T15:45:09.114Z,1.00
2018-09-24T15:50:17.811Z,0.70
2018-09-24T15:55:26.614Z,1.27
2018-09-24T16:00:35.358Z,1.27
2018-09-24T16:05:44.043Z,1.60
2018-09-24T16:10:52.659Z,1.10
2018-09-24T16:16:01.363Z,1.37
2018-09-24T16:21:09.974Z,1.23
2018-09-24T16:26:18.702Z,1.40
2018-09-24T16:31:27.316Z,1.00
2018-09-24T16:36:35.850Z,0.90
2018-09-24T16:41:44.603Z,1.00
2018-09-24T16:46:53.266Z,1.03
2018-09-24T16:52:01.888Z,0.83
2018-09-24T16:57:10.586Z,1.10
2018-09-24T17:02:19.301Z,1.03
2018-09-24T17:07:27.815Z,1.20
2018-09-24T17:12:36.540Z,1.70
2018-09-24T17:17:45.203Z,1.80
2018-09-24T17:22:53.926Z,1.43
2018-09-24T17:28:09.324Z,1.10
2018-09-24T17:33:18.012Z,0.97
2018-09-24T17:38:26.515Z,1.40
2018-09-24T17:43:35.237Z,1.40
2018-09-24T17:48:43.838Z,1.40
2018-09-24T17:53:52.475Z,1.27
2018-09-24T17:59:01.144Z,1.20
2018-09-24T18:04:09.798Z,1.50
2018-09-24T18:09:18.364Z,1.40
2018-09-24T18:14:26.855Z,3.63
2018-09-24T18:19:35.481Z,1.60
2018-09-24T18:24:44.128Z,1.70
2018-09-24T18:29:52.771Z,1.23
2018-09-24T18:35:01.473Z,1.60
2018-09-24T18:40:10.282Z,1.47
2018-09-24T18:45:18.839Z,1.80
2018-09-24T18:50:28.307Z,1.70
2018-09-24T18:55:38.263Z,1.47
2018-09-24T19:00:47.188Z,1.77
2018-09-24T19:05:56.449Z,2.60
2018-09-24T19:11:06.138Z,2.40
2018-09-24T19:16:15.755Z,1.57
2018-09-24T19:21:26.633Z,1.50
2018-09-24T19:26:35.442Z,1.43
2018-09-24T19:31:44.133Z,1.70
2018-09-24T19:36:52.725Z,1.70
2018-09-24T19:42:01.111Z,0.77
2018-09-24T19:47:09.694Z,1.43
2018-09-24T19:52:18.228Z,1.50
2018-09-24T19:57:26.704Z,1.90
2018-09-24T20:02:35.382Z,1.53
2018-09-24T20:07:44.021Z,1.40
2018-09-24T20:12:53.236Z,2.03
2018-09-24T20:18:02.137Z,2.33
2018-09-24T20:23:44.156Z,1.80
2018-09-24T20:28:53.531Z,1.77
2018-09-24T20:34:02.424Z,1.53
2018-09-24T20:39:12.145Z,1.83
2018-09-24T20:44:21.155Z,1.50
2018-09-24T20:49:30.045Z,1.70
2018-09-24T20:54:38.680Z,3.67
2018-09-24T20:59:47.380Z,1.63
2018-09-24T21:04:56.016Z,1.30
2018-09-24T21:10:04.630Z,1.20
2018-09-24T21:15:14.125Z,1.40
2018-09-24T21:20:23.009Z,1.60
2018-09-24T21:25:31.371Z,1.50
2018-09-24T21:30:40.316Z,1.17
2018-09-24T21:35:49.167Z,2.80
2018-09-24T21:40:58.329Z,1.40
2018-09-24T21:46:07.586Z,1.10
2018-09-24T21:51:16.336Z,1.27
2018-09-24T21:56:25.394Z,1.40
2018-09-24T22:01:34.554Z,2.07
2018-09-24T22:06:43.690Z,1.40
2018-09-24T22:11:52.783Z,1.50
2018-09-24T22:17:01.177Z,1.67
2018-09-24T22:22:10.266Z,2.10
2018-09-24T22:27:18.664Z,2.23
2018-09-24T22:32:27.264Z,1.63
2018-09-24T22:37:36.005Z,1.57
2018-09-24T22:42:44.721Z,1.77
2018-09-24T22:47:53.473Z,1.70
2018-09-24T22:53:03.153Z,2.10
2018-09-24T22:58:11.871Z,1.73
2018-09-24T23:03:20.498Z,1.70
2018-09-24T23:08:29.149Z,1.80
2018-09-24T23:13:37.509Z,2.30
2018-09-24T23:18:46.305Z,2.30
2018-09-24T23:23:54.972Z,2.00
2018-09-24T23:29:03.549Z,2.20
2018-09-24T23:34:12.264Z,1.90
2018-09-24T23:39:25.872Z,1.80
2018-09-24T23:44:34.335Z,1.97
2018-09-24T23:49:43.061Z,1.60
2018-09-24T23:54:51.831Z,2.47
